createdAt,value
2023-05-14T00:00:42.325Z,94845.00
2023-05-14T00:01:42.353Z,94847.00
2023-05-14T00:02:42.497Z,94847.00
2023-05-14T00:03:42.527Z,94845.00
2023-05-14T00:04:42.551Z,94845.00
2023-05-14T00:05:46.313Z,94845.00
2023-05-14T00:06:42.598Z,94845.00
2023-05-14T00:07:42.604Z,94843.00
2023-05-14T00:08:42.575Z,94843.00
2023-05-14T00:09:43.306Z,94843.00
2023-05-14T00:10:42.547Z,94845.00
2023-05-14T00:11:42.599Z,94845.00
2023-05-14T00:12:42.569Z,94845.00
2023-05-14T00:13:42.548Z,94845.00
2023-05-14T00:14:42.546Z,94843.00
2023-05-14T00:15:42.594Z,94843.00
2023-05-14T00:16:42.542Z,94841.00
2023-05-14T00:17:42.613Z,94841.00
2023-05-14T00:18:42.572Z,94840.00
2023-05-14T00:19:42.499Z,94840.00
2023-05-14T00:20:42.495Z,94838.00
2023-05-14T00:21:42.495Z,94840.00
2023-05-14T00:22:42.536Z,94838.00
2023-05-14T00:23:42.503Z,94838.00
2023-05-14T00:24:42.485Z,94834.00
2023-05-14T00:25:42.475Z,94834.00
2023-05-14T00:26:42.471Z,94834.00
2023-05-14T00:27:42.441Z,94834.00
2023-05-14T00:28:42.454Z,94832.00
2023-05-14T00:29:42.483Z,94832.00
2023-05-14T00:30:45.324Z,94830.00
2023-05-14T00:31:42.491Z,94830.00
2023-05-14T00:32:42.465Z,94830.00
2023-05-14T00:33:42.399Z,94826.00
2023-05-14T00:34:42.834Z,94832.00
2023-05-14T00:35:42.405Z,94832.00
2023-05-14T00:36:43.335Z,94832.00
2023-05-14T00:37:42.409Z,94832.00
2023-05-14T00:38:42.379Z,94832.00
2023-05-14T00:39:42.819Z,94834.00
2023-05-14T00:40:42.363Z,94834.00
2023-05-14T00:41:42.357Z,94834.00
2023-05-14T00:42:42.340Z,94834.00
2023-05-14T00:43:42.345Z,94836.00
2023-05-14T00:44:42.878Z,94836.00
2023-05-14T00:45:42.312Z,94838.00
2023-05-14T00:46:42.419Z,94832.00
2023-05-14T00:47:42.371Z,94838.00
2023-05-14T00:48:43.320Z,94834.00
2023-05-14T00:49:42.304Z,94834.00
2023-05-14T00:50:42.811Z,94832.00
2023-05-14T00:51:42.298Z,94834.00
2023-05-14T00:52:42.289Z,94830.00
2023-05-14T00:53:42.249Z,94830.00
2023-05-14T00:54:42.402Z,94830.00
2023-05-14T00:55:42.277Z,94830.00
2023-05-14T00:56:42.261Z,94828.00
2023-05-14T00:57:42.241Z,94828.00
2023-05-14T00:58:42.204Z,94828.00
2023-05-14T00:59:42.234Z,94830.00
2023-05-14T01:00:42.361Z,94834.00
2023-05-14T01:01:42.204Z,94828.00
2023-05-14T01:02:42.273Z,94828.00
2023-05-14T01:03:42.266Z,94828.00
2023-05-14T01:04:42.182Z,94826.00
2023-05-14T01:05:42.320Z,94826.00
2023-05-14T01:06:42.147Z,94826.00
2023-05-14T01:07:42.177Z,94824.00
2023-05-14T01:08:42.188Z,94824.00
2023-05-14T01:09:42.187Z,94824.00
2023-05-14T01:10:42.162Z,94824.00
2023-05-14T01:11:42.112Z,94824.00
2023-05-14T01:12:42.131Z,94824.00
2023-05-14T01:13:42.110Z,94822.00
2023-05-14T01:14:42.103Z,94822.00
2023-05-14T01:15:42.329Z,94822.00
2023-05-14T01:16:42.108Z,94822.00
2023-05-14T01:17:42.173Z,94822.00
2023-05-14T01:18:42.107Z,94822.00
2023-05-14T01:19:42.090Z,94822.00
2023-05-14T01:20:42.050Z,94822.00
2023-05-14T01:21:42.068Z,94820.00
2023-05-14T01:22:42.146Z,94822.00
2023-05-14T01:23:42.157Z,94822.00
2023-05-14T01:24:42.179Z,94820.00
2023-05-14T01:25:42.247Z,94820.00
2023-05-14T01:26:42.859Z,94824.00
2023-05-14T01:27:42.289Z,94824.00
2023-05-14T01:28:42.294Z,94824.00
2023-05-14T01:29:42.323Z,94826.00
2023-05-14T01:30:42.863Z,94822.00
2023-05-14T01:31:42.411Z,94826.00
2023-05-14T01:32:42.456Z,94826.00
2023-05-14T01:33:42.466Z,94822.00
2023-05-14T01:34:42.497Z,94822.00
2023-05-14T01:35:42.836Z,94822.00
2023-05-14T01:36:42.532Z,94820.00
2023-05-14T01:37:42.612Z,94824.00
2023-05-14T01:38:42.655Z,94824.00
2023-05-14T01:39:42.685Z,94824.00
2023-05-14T01:40:42.819Z,94822.00
2023-05-14T01:41:42.762Z,94822.00
2023-05-14T01:42:42.863Z,94822.00
2023-05-14T01:43:42.862Z,94822.00
2023-05-14T01:44:42.870Z,94822.00
2023-05-14T01:45:42.954Z,94824.00
2023-05-14T01:46:42.951Z,94824.00
2023-05-14T01:47:43.051Z,94822.00
2023-05-14T01:48:42.985Z,94822.00
2023-05-14T01:49:43.027Z,94822.00
2023-05-14T01:50:43.072Z,94822.00
2023-05-14T01:51:43.085Z,94824.00
2023-05-14T01:52:43.085Z,94824.00
2023-05-14T01:53:45.838Z,94824.00
2023-05-14T01:54:43.130Z,94824.00
2023-05-14T01:55:43.351Z,94822.00
2023-05-14T01:56:43.116Z,94820.00
2023-05-14T01:57:45.822Z,94818.00
2023-05-14T01:58:43.889Z,94820.00
2023-05-14T01:59:43.120Z,94820.00
2023-05-14T02:00:43.351Z,94818.00
2023-05-14T02:01:43.128Z,94818.00
2023-05-14T02:02:43.119Z,94816.00
2023-05-14T02:03:43.146Z,94814.00
2023-05-14T02:04:43.065Z,94818.00
2023-05-14T02:05:43.363Z,94814.00
2023-05-14T02:06:43.057Z,94812.00
2023-05-14T02:07:43.097Z,94814.00
2023-05-14T02:08:43.047Z,94810.00
2023-05-14T02:09:43.060Z,94812.00
2023-05-14T02:10:43.010Z,94810.00
2023-05-14T02:11:43.040Z,94812.00
2023-05-14T02:12:43.014Z,94810.00
2023-05-14T02:13:43.006Z,94810.00
2023-05-14T02:14:43.033Z,94808.00
2023-05-14T02:15:43.398Z,94808.00
2023-05-14T02:16:43.007Z,94806.00
2023-05-14T02:17:43.014Z,94806.00
2023-05-14T02:18:43.905Z,94806.00
2023-05-14T02:19:42.981Z,94806.00
2023-05-14T02:20:42.979Z,94804.00
2023-05-14T02:21:42.929Z,94806.00
2023-05-14T02:22:42.936Z,94802.00
2023-05-14T02:23:42.944Z,94804.00
2023-05-14T02:24:42.894Z,94804.00
2023-05-14T02:25:43.379Z,94806.00
2023-05-14T02:26:42.925Z,94804.00
2023-05-14T02:27:42.932Z,94802.00
2023-05-14T02:28:42.904Z,94802.00
2023-05-14T02:29:42.877Z,94802.00
2023-05-14T02:30:44.434Z,94800.00
2023-05-14T02:31:42.932Z,94800.00
2023-05-14T02:32:42.966Z,94800.00
2023-05-14T02:33:42.925Z,94800.00
2023-05-14T02:34:42.916Z,94800.00
2023-05-14T02:35:43.367Z,94796.00
2023-05-14T02:36:43.013Z,94796.00
2023-05-14T02:37:43.041Z,94798.00
2023-05-14T02:38:43.111Z,94794.00
2023-05-14T02:39:43.126Z,94793.00
2023-05-14T02:40:43.222Z,94793.00
2023-05-14T02:41:43.208Z,94793.00
2023-05-14T02:42:43.231Z,94793.00
2023-05-14T02:43:43.299Z,94791.00
2023-05-14T02:44:43.323Z,94789.00
2023-05-14T02:45:43.851Z,94785.00
2023-05-14T02:46:43.415Z,94785.00
2023-05-14T02:47:43.450Z,94783.00
2023-05-14T02:48:43.420Z,94783.00
2023-05-14T02:49:43.487Z,94785.00
2023-05-14T02:50:43.500Z,94785.00
2023-05-14T02:51:43.555Z,94783.00
2023-05-14T02:52:43.584Z,94785.00
2023-05-14T02:53:43.621Z,94783.00
2023-05-14T02:54:43.621Z,94781.00
2023-05-14T02:55:43.744Z,94783.00
2023-05-14T02:56:43.696Z,94783.00
2023-05-14T02:57:43.729Z,94783.00
2023-05-14T02:58:43.766Z,94783.00
2023-05-14T02:59:43.789Z,94781.00
2023-05-14T03:00:43.854Z,94781.00
2023-05-14T03:01:43.945Z,94781.00
2023-05-14T03:02:44.066Z,94781.00
2023-05-14T03:03:43.879Z,94781.00
2023-05-14T03:04:43.905Z,94781.00
2023-05-14T03:05:43.912Z,94779.00
2023-05-14T03:06:43.972Z,94779.00
2023-05-14T03:07:43.982Z,94779.00
2023-05-14T03:08:43.985Z,94779.00
2023-05-14T03:09:44.012Z,94777.00
2023-05-14T03:10:44.083Z,94779.00
2023-05-14T03:11:44.087Z,94777.00
2023-05-14T03:12:44.164Z,94777.00
2023-05-14T03:13:44.195Z,94777.00
2023-05-14T03:14:44.283Z,94779.00
2023-05-14T03:15:44.284Z,94779.00
2023-05-14T03:16:44.415Z,94781.00
2023-05-14T03:17:45.374Z,94781.00
2023-05-14T03:18:44.440Z,94777.00
2023-05-14T03:19:44.409Z,94775.00
2023-05-14T03:20:44.883Z,94773.00
2023-05-14T03:21:44.516Z,94771.00
2023-05-14T03:22:44.546Z,94769.00
2023-05-14T03:23:44.501Z,94769.00
2023-05-14T03:24:44.558Z,94767.00
2023-05-14T03:25:44.864Z,94767.00
2023-05-14T03:26:44.620Z,94765.00
2023-05-14T03:27:44.621Z,94765.00
2023-05-14T03:28:44.631Z,94765.00
2023-05-14T03:29:44.630Z,94767.00
2023-05-14T03:30:44.949Z,94767.00
2023-05-14T03:31:44.756Z,94767.00
2023-05-14T03:32:44.827Z,94767.00
2023-05-14T03:33:44.795Z,94767.00
2023-05-14T03:34:44.865Z,94769.00
2023-05-14T03:35:44.845Z,94769.00
2023-05-14T03:36:44.899Z,94767.00
2023-05-14T03:37:44.913Z,94767.00
2023-05-14T03:38:44.914Z,94769.00
2023-05-14T03:39:44.959Z,94769.00
2023-05-14T03:40:44.937Z,94771.00
2023-05-14T03:41:44.977Z,94771.00
2023-05-14T03:42:45.096Z,94773.00
2023-05-14T03:43:44.992Z,94773.00
2023-05-14T03:44:44.997Z,94773.00
2023-05-14T03:45:45.060Z,94773.00
2023-05-14T03:46:45.066Z,94775.00
2023-05-14T03:47:45.112Z,94775.00
2023-05-14T03:48:45.189Z,94775.00
2023-05-14T03:49:45.119Z,94777.00
2023-05-14T03:50:45.151Z,94781.00
2023-05-14T03:51:45.176Z,94777.00
2023-05-14T03:52:45.192Z,94779.00
2023-05-14T03:53:45.200Z,94779.00
2023-05-14T03:54:45.228Z,94779.00
2023-05-14T03:55:45.400Z,94781.00
2023-05-14T03:56:45.254Z,94781.00
2023-05-14T03:57:45.247Z,94779.00
2023-05-14T03:58:45.280Z,94781.00
2023-05-14T03:59:45.333Z,94783.00
2023-05-14T04:00:45.321Z,94781.00
2023-05-14T04:01:45.326Z,94779.00
2023-05-14T04:02:45.396Z,94777.00
2023-05-14T04:03:45.503Z,94781.00
2023-05-14T04:04:45.365Z,94779.00
2023-05-14T04:05:45.404Z,94779.00
2023-05-14T04:06:45.360Z,94777.00
2023-05-14T04:07:45.420Z,94775.00
2023-05-14T04:08:45.445Z,94779.00
2023-05-14T04:09:45.429Z,94775.00
2023-05-14T04:10:45.516Z,94777.00
2023-05-14T04:11:45.494Z,94775.00
2023-05-14T04:12:45.500Z,94777.00
2023-05-14T04:13:45.530Z,94771.00
2023-05-14T04:14:45.551Z,94769.00
2023-05-14T04:15:45.588Z,94771.00
2023-05-14T04:16:45.711Z,94773.00
2023-05-14T04:17:45.655Z,94769.00
2023-05-14T04:18:45.631Z,94771.00
2023-05-14T04:19:45.650Z,94769.00
2023-05-14T04:20:45.688Z,94767.00
2023-05-14T04:21:45.776Z,94765.00
2023-05-14T04:22:45.757Z,94767.00
2023-05-14T04:23:45.786Z,94765.00
2023-05-14T04:24:45.817Z,94763.00
2023-05-14T04:25:45.894Z,94761.00
2023-05-14T04:26:45.845Z,94763.00
2023-05-14T04:27:45.890Z,94763.00
2023-05-14T04:28:45.934Z,94763.00
2023-05-14T04:29:45.978Z,94763.00
2023-05-14T04:30:46.423Z,94761.00
2023-05-14T04:31:46.060Z,94765.00
2023-05-14T04:32:46.059Z,94763.00
2023-05-14T04:33:46.032Z,94763.00
2023-05-14T04:34:46.095Z,94761.00
2023-05-14T04:35:46.100Z,94763.00
2023-05-14T04:36:46.191Z,94765.00
2023-05-14T04:37:46.164Z,94769.00
2023-05-14T04:38:46.213Z,94769.00
2023-05-14T04:39:46.230Z,94767.00
2023-05-14T04:40:46.235Z,94769.00
2023-05-14T04:41:46.314Z,94773.00
2023-05-14T04:42:46.317Z,94773.00
2023-05-14T04:43:46.381Z,94773.00
2023-05-14T04:44:46.461Z,94773.00
2023-05-14T04:45:46.450Z,94771.00
2023-05-14T04:46:46.472Z,94773.00
2023-05-14T04:47:46.551Z,94769.00
2023-05-14T04:48:46.528Z,94769.00
2023-05-14T04:49:46.542Z,94769.00
2023-05-14T04:50:46.548Z,94773.00
2023-05-14T04:51:46.912Z,94769.00
2023-05-14T04:52:46.586Z,94769.00
2023-05-14T04:53:46.657Z,94769.00
2023-05-14T04:54:46.724Z,94769.00
2023-05-14T04:55:46.721Z,94769.00
2023-05-14T04:56:46.939Z,94769.00
2023-05-14T04:57:46.793Z,94769.00
2023-05-14T04:58:46.788Z,94769.00
2023-05-14T04:59:46.812Z,94765.00
2023-05-14T05:00:46.884Z,94765.00
2023-05-14T05:01:46.889Z,94767.00
2023-05-14T05:02:46.928Z,94769.00
2023-05-14T05:03:46.968Z,94765.00
2023-05-14T05:04:46.895Z,94765.00
2023-05-14T05:05:46.918Z,94767.00
2023-05-14T05:06:46.970Z,94767.00
2023-05-14T05:07:46.968Z,94769.00
2023-05-14T05:08:46.944Z,94771.00
2023-05-14T05:09:46.957Z,94773.00
2023-05-14T05:10:46.990Z,94777.00
2023-05-14T05:11:46.972Z,94775.00
2023-05-14T05:12:47.009Z,94777.00
2023-05-14T05:13:47.003Z,94775.00
2023-05-14T05:14:46.985Z,94777.00
2023-05-14T05:15:47.082Z,94777.00
2023-05-14T05:16:47.028Z,94777.00
2023-05-14T05:17:47.129Z,94777.00
2023-05-14T05:18:47.202Z,94775.00
2023-05-14T05:19:47.079Z,94775.00
2023-05-14T05:20:47.123Z,94773.00
2023-05-14T05:21:47.910Z,94773.00
2023-05-14T05:22:47.121Z,94771.00
2023-05-14T05:23:47.122Z,94771.00
2023-05-14T05:24:49.699Z,94771.00
2023-05-14T05:25:47.134Z,94769.00
2023-05-14T05:26:47.419Z,94773.00
2023-05-14T05:27:47.137Z,94775.00
2023-05-14T05:28:47.128Z,94775.00
2023-05-14T05:29:47.093Z,94775.00
2023-05-14T05:30:47.100Z,94775.00
2023-05-14T05:31:47.547Z,94775.00
2023-05-14T05:32:47.107Z,94773.00
2023-05-14T05:33:47.104Z,94771.00
2023-05-14T05:34:47.101Z,94769.00
2023-05-14T05:35:47.071Z,94769.00
2023-05-14T05:36:47.083Z,94769.00
2023-05-14T05:37:47.048Z,94769.00
2023-05-14T05:38:47.021Z,94769.00
2023-05-14T05:39:47.102Z,94771.00
2023-05-14T05:40:47.042Z,94771.00
2023-05-14T05:41:47.422Z,94771.00
2023-05-14T05:42:47.031Z,94769.00
2023-05-14T05:43:47.027Z,94767.00
2023-05-14T05:44:47.031Z,94767.00
2023-05-14T05:45:47.026Z,94767.00
2023-05-14T05:46:47.497Z,94765.00
2023-05-14T05:47:47.024Z,94763.00
2023-05-14T05:48:46.996Z,94763.00
2023-05-14T05:49:47.000Z,94763.00
2023-05-14T05:50:46.980Z,94761.00
2023-05-14T05:51:47.425Z,94761.00
2023-05-14T05:52:46.974Z,94761.00
2023-05-14T05:53:46.962Z,94763.00
2023-05-14T05:54:46.934Z,94763.00
2023-05-14T05:55:46.936Z,94763.00
2023-05-14T05:56:46.948Z,94763.00
2023-05-14T05:57:46.902Z,94761.00
2023-05-14T05:58:46.946Z,94759.00
2023-05-14T05:59:46.923Z,94757.00
2023-05-14T06:00:46.865Z,94759.00
2023-05-14T06:01:46.973Z,94759.00
2023-05-14T06:02:46.920Z,94755.00
2023-05-14T06:03:48.580Z,94755.00
2023-05-14T06:04:46.879Z,94753.00
2023-05-14T06:05:46.996Z,94753.00
2023-05-14T06:06:46.878Z,94749.00
2023-05-14T06:07:46.851Z,94751.00
2023-05-14T06:08:46.866Z,94751.00
2023-05-14T06:09:46.853Z,94749.00
2023-05-14T06:10:47.641Z,94749.00
2023-05-14T06:11:46.919Z,94749.00
2023-05-14T06:12:46.825Z,94749.00
2023-05-14T06:13:46.810Z,94751.00
2023-05-14T06:14:46.813Z,94751.00
2023-05-14T06:15:46.845Z,94755.00
2023-05-14T06:16:46.859Z,94753.00
2023-05-14T06:17:46.923Z,94753.00
2023-05-14T06:18:46.934Z,94749.00
2023-05-14T06:19:46.981Z,94747.00
2023-05-14T06:20:47.020Z,94747.00
2023-05-14T06:21:47.074Z,94745.00
2023-05-14T06:22:47.101Z,94745.00
2023-05-14T06:23:47.143Z,94745.00
2023-05-14T06:24:47.182Z,94743.00
2023-05-14T06:25:47.888Z,94743.00
2023-05-14T06:26:47.260Z,94745.00
2023-05-14T06:27:47.294Z,94743.00
2023-05-14T06:28:47.350Z,94741.00
2023-05-14T06:29:47.355Z,94739.00
2023-05-14T06:30:47.411Z,94738.00
2023-05-14T06:31:47.470Z,94739.00
2023-05-14T06:32:47.492Z,94738.00
2023-05-14T06:33:47.558Z,94738.00
2023-05-14T06:34:47.581Z,94738.00
2023-05-14T06:35:47.633Z,94736.00
2023-05-14T06:36:47.670Z,94736.00
2023-05-14T06:37:47.755Z,94738.00
2023-05-14T06:38:47.789Z,94736.00
2023-05-14T06:39:47.872Z,94734.00
2023-05-14T06:40:47.923Z,94730.00
2023-05-14T06:41:47.950Z,94732.00
2023-05-14T06:42:48.033Z,94732.00
2023-05-14T06:43:48.097Z,94738.00
2023-05-14T06:44:48.125Z,94738.00
2023-05-14T06:45:48.225Z,94738.00
2023-05-14T06:46:48.247Z,94739.00
2023-05-14T06:47:48.328Z,94741.00
2023-05-14T06:48:48.439Z,94736.00
2023-05-14T06:49:48.447Z,94739.00
2023-05-14T06:50:48.511Z,94741.00
2023-05-14T06:51:48.558Z,94739.00
2023-05-14T06:52:48.606Z,94738.00
2023-05-14T06:53:48.635Z,94738.00
2023-05-14T06:54:48.696Z,94736.00
2023-05-14T06:55:48.735Z,94734.00
2023-05-14T06:56:48.827Z,94734.00
2023-05-14T06:57:48.915Z,94736.00
2023-05-14T06:58:48.939Z,94739.00
2023-05-14T06:59:48.966Z,94736.00
2023-05-14T07:00:49.034Z,94739.00
2023-05-14T07:01:49.152Z,94739.00
2023-05-14T07:02:49.164Z,94739.00
2023-05-14T07:03:49.231Z,94738.00
2023-05-14T07:04:49.306Z,94736.00
2023-05-14T07:05:49.323Z,94734.00
2023-05-14T07:06:49.457Z,94732.00
2023-05-14T07:07:49.409Z,94732.00
2023-05-14T07:08:49.458Z,94732.00
2023-05-14T07:09:49.523Z,94730.00
2023-05-14T07:10:49.619Z,94730.00
2023-05-14T07:11:49.615Z,94728.00
2023-05-14T07:12:49.677Z,94726.00
2023-05-14T07:13:49.731Z,94726.00
2023-05-14T07:14:49.763Z,94728.00
2023-05-14T07:15:49.854Z,94728.00
2023-05-14T07:16:49.962Z,94728.00
2023-05-14T07:17:49.996Z,94728.00
2023-05-14T07:18:50.007Z,94728.00
2023-05-14T07:19:50.056Z,94728.00
2023-05-14T07:20:50.097Z,94726.00
2023-05-14T07:21:50.138Z,94724.00
2023-05-14T07:22:50.217Z,94722.00
2023-05-14T07:23:50.217Z,94722.00
2023-05-14T07:24:50.351Z,94716.00
2023-05-14T07:25:50.324Z,94716.00
2023-05-14T07:26:50.409Z,94712.00
2023-05-14T07:27:50.448Z,94708.00
2023-05-14T07:28:50.504Z,94708.00
2023-05-14T07:29:50.531Z,94704.00
2023-05-14T07:30:50.612Z,94702.00
2023-05-14T07:31:50.672Z,94698.00
2023-05-14T07:32:50.773Z,94698.00
2023-05-14T07:33:50.761Z,94700.00
2023-05-14T07:34:50.800Z,94698.00
2023-05-14T07:35:50.866Z,94696.00
2023-05-14T07:36:50.967Z,94691.00
2023-05-14T07:37:51.009Z,94692.00
2023-05-14T07:38:51.071Z,94691.00
2023-05-14T07:39:51.116Z,94689.00
2023-05-14T07:40:51.183Z,94687.00
2023-05-14T07:41:51.261Z,94689.00
2023-05-14T07:42:51.300Z,94685.00
2023-05-14T07:43:51.377Z,94683.00
2023-05-14T07:44:51.438Z,94683.00
2023-05-14T07:45:51.512Z,94681.00
2023-05-14T07:46:51.657Z,94679.00
2023-05-14T07:47:51.814Z,94677.00
2023-05-14T07:48:51.683Z,94679.00
2023-05-14T07:49:51.726Z,94677.00
2023-05-14T07:50:51.810Z,94679.00
2023-05-14T07:51:51.896Z,94677.00
2023-05-14T07:52:51.912Z,94677.00
2023-05-14T07:53:51.985Z,94677.00
2023-05-14T07:54:52.093Z,94677.00
2023-05-14T07:55:52.124Z,94675.00
2023-05-14T07:56:52.188Z,94679.00
2023-05-14T07:57:52.242Z,94677.00
2023-05-14T07:58:52.352Z,94677.00
2023-05-14T07:59:52.355Z,94675.00
2023-05-14T08:00:52.396Z,94671.00
2023-05-14T08:01:52.521Z,94671.00
2023-05-14T08:02:52.928Z,94669.00
2023-05-14T08:03:52.712Z,94671.00
2023-05-14T08:04:52.620Z,94665.00
2023-05-14T08:05:52.677Z,94665.00
2023-05-14T08:06:52.730Z,94663.00
2023-05-14T08:07:52.774Z,94661.00
2023-05-14T08:08:52.812Z,94659.00
2023-05-14T08:09:52.861Z,94657.00
2023-05-14T08:10:52.959Z,94659.00
2023-05-14T08:11:52.962Z,94655.00
2023-05-14T08:12:53.030Z,94657.00
2023-05-14T08:13:53.055Z,94655.00
2023-05-14T08:14:53.131Z,94653.00
2023-05-14T08:15:53.173Z,94649.00
2023-05-14T08:16:53.282Z,94647.00
2023-05-14T08:17:53.316Z,94644.00
2023-05-14T08:18:53.386Z,94644.00
2023-05-14T08:19:53.396Z,94642.00
2023-05-14T08:20:53.413Z,94642.00
2023-05-14T08:21:53.450Z,94640.00
2023-05-14T08:22:53.540Z,94642.00
2023-05-14T08:23:53.562Z,94640.00
2023-05-14T08:24:53.597Z,94640.00
2023-05-14T08:25:53.651Z,94640.00
2023-05-14T08:26:53.709Z,94642.00
2023-05-14T08:27:53.745Z,94642.00
2023-05-14T08:28:53.788Z,94642.00
2023-05-14T08:29:53.788Z,94638.00
2023-05-14T08:30:53.904Z,94638.00
2023-05-14T08:31:53.877Z,94624.00
2023-05-14T08:32:53.920Z,94624.00
2023-05-14T08:33:53.925Z,94624.00
2023-05-14T08:34:53.960Z,94624.00
2023-05-14T08:35:54.002Z,94626.00
2023-05-14T08:36:54.001Z,94626.00
2023-05-14T08:37:54.024Z,94624.00
2023-05-14T08:38:54.023Z,94620.00
2023-05-14T08:39:54.073Z,94624.00
2023-05-14T08:40:54.099Z,94626.00
2023-05-14T08:41:54.463Z,94626.00
2023-05-14T08:42:54.104Z,94624.00
2023-05-14T08:43:54.115Z,94626.00
2023-05-14T08:44:54.157Z,94620.00
2023-05-14T08:45:54.115Z,94620.00
2023-05-14T08:46:54.148Z,94622.00
2023-05-14T08:47:54.223Z,94620.00
2023-05-14T08:48:54.173Z,94620.00
2023-05-14T08:49:54.135Z,94616.00
2023-05-14T08:50:54.126Z,94616.00
2023-05-14T08:51:54.166Z,94616.00
2023-05-14T08:52:54.220Z,94614.00
2023-05-14T08:53:54.177Z,94614.00
2023-05-14T08:54:54.184Z,94610.00
2023-05-14T08:55:54.214Z,94614.00
2023-05-14T08:56:54.172Z,94616.00
2023-05-14T08:57:54.228Z,94614.00
2023-05-14T08:58:54.226Z,94610.00
2023-05-14T08:59:54.217Z,94610.00
2023-05-14T09:00:54.178Z,94614.00
2023-05-14T09:01:54.233Z,94610.00
2023-05-14T09:02:54.191Z,94606.00
2023-05-14T09:03:54.184Z,94606.00
2023-05-14T09:04:54.156Z,94606.00
2023-05-14T09:05:54.173Z,94604.00
2023-05-14T09:06:54.193Z,94606.00
2023-05-14T09:07:54.219Z,94606.00
2023-05-14T09:08:54.172Z,94604.00
2023-05-14T09:09:54.206Z,94608.00
2023-05-14T09:10:54.206Z,94606.00
2023-05-14T09:11:54.225Z,94606.00
2023-05-14T09:12:54.224Z,94604.00
2023-05-14T09:13:54.194Z,94602.00
2023-05-14T09:14:54.218Z,94604.00
2023-05-14T09:15:54.244Z,94602.00
2023-05-14T09:16:54.212Z,94602.00
2023-05-14T09:17:54.281Z,94602.00
2023-05-14T09:18:54.291Z,94600.00
2023-05-14T09:19:54.211Z,94602.00
2023-05-14T09:20:54.229Z,94598.00
2023-05-14T09:21:54.217Z,94594.00
2023-05-14T09:22:54.228Z,94598.00
2023-05-14T09:23:54.227Z,94592.00
2023-05-14T09:24:54.216Z,94591.00
2023-05-14T09:25:54.234Z,94589.00
2023-05-14T09:26:54.212Z,94587.00
2023-05-14T09:27:55.070Z,94589.00
2023-05-14T09:28:54.262Z,94591.00
2023-05-14T09:29:54.261Z,94587.00
2023-05-14T09:30:54.276Z,94581.00
2023-05-14T09:31:54.332Z,94579.00
2023-05-14T09:32:54.356Z,94583.00
2023-05-14T09:33:54.308Z,94579.00
2023-05-14T09:34:54.356Z,94579.00
2023-05-14T09:35:54.646Z,94577.00
2023-05-14T09:36:54.363Z,94573.00
2023-05-14T09:37:54.353Z,94573.00
2023-05-14T09:38:54.351Z,94573.00
2023-05-14T09:39:54.412Z,94573.00
2023-05-14T09:40:54.392Z,94569.00
2023-05-14T09:41:54.532Z,94567.00
2023-05-14T09:42:54.456Z,94561.00
2023-05-14T09:43:54.427Z,94559.00
2023-05-14T09:44:54.483Z,94559.00
2023-05-14T09:45:54.478Z,94557.00
2023-05-14T09:46:54.670Z,94557.00
2023-05-14T09:47:54.611Z,94557.00
2023-05-14T09:48:54.546Z,94553.00
2023-05-14T09:49:54.554Z,94553.00
2023-05-14T09:50:54.602Z,94551.00
2023-05-14T09:51:54.612Z,94549.00
2023-05-14T09:52:54.593Z,94551.00
2023-05-14T09:53:54.614Z,94549.00
2023-05-14T09:54:54.636Z,94549.00
2023-05-14T09:55:54.706Z,94547.00
2023-05-14T09:56:55.762Z,94545.00
2023-05-14T09:57:54.727Z,94547.00
2023-05-14T09:58:54.728Z,94547.00
2023-05-14T09:59:54.793Z,94547.00
2023-05-14T10:00:54.805Z,94544.00
2023-05-14T10:01:54.800Z,94544.00
2023-05-14T10:02:55.027Z,94545.00
2023-05-14T10:03:54.848Z,94544.00
2023-05-14T10:04:54.978Z,94544.00
2023-05-14T10:05:54.872Z,94542.00
2023-05-14T10:06:54.895Z,94538.00
2023-05-14T10:07:54.962Z,94545.00
2023-05-14T10:08:55.004Z,94536.00
2023-05-14T10:09:56.240Z,94538.00
2023-05-14T10:10:54.986Z,94538.00
2023-05-14T10:11:55.074Z,94538.00
2023-05-14T10:12:55.059Z,94536.00
2023-05-14T10:13:55.063Z,94540.00
2023-05-14T10:14:55.107Z,94538.00
2023-05-14T10:15:55.136Z,94536.00
2023-05-14T10:16:55.177Z,94538.00
2023-05-14T10:17:55.226Z,94538.00
2023-05-14T10:18:57.324Z,94538.00
2023-05-14T10:19:55.236Z,94534.00
2023-05-14T10:20:55.283Z,94538.00
2023-05-14T10:21:55.307Z,94536.00
2023-05-14T10:22:55.322Z,94532.00
2023-05-14T10:23:55.336Z,94532.00
2023-05-14T10:24:55.370Z,94534.00
2023-05-14T10:25:55.395Z,94530.00
2023-05-14T10:26:55.424Z,94526.00
2023-05-14T10:27:55.501Z,94528.00
2023-05-14T10:28:55.504Z,94528.00
2023-05-14T10:29:55.521Z,94522.00
2023-05-14T10:30:55.563Z,94524.00
2023-05-14T10:31:55.578Z,94520.00
2023-05-14T10:32:56.025Z,94522.00
2023-05-14T10:33:57.010Z,94520.00
2023-05-14T10:34:55.677Z,94516.00
2023-05-14T10:35:55.696Z,94516.00
2023-05-14T10:36:55.684Z,94518.00
2023-05-14T10:37:56.080Z,94520.00
2023-05-14T10:38:55.781Z,94520.00
2023-05-14T10:39:55.823Z,94520.00
2023-05-14T10:40:55.869Z,94520.00
2023-05-14T10:41:55.851Z,94518.00
2023-05-14T10:42:55.895Z,94516.00
2023-05-14T10:43:55.935Z,94516.00
2023-05-14T10:44:56.021Z,94520.00
2023-05-14T10:45:56.006Z,94516.00
2023-05-14T10:46:56.201Z,94514.00
2023-05-14T10:47:56.150Z,94514.00
2023-05-14T10:48:56.105Z,94512.00
2023-05-14T10:49:56.125Z,94518.00
2023-05-14T10:50:56.176Z,94514.00
2023-05-14T10:51:56.181Z,94512.00
2023-05-14T10:52:56.479Z,94516.00
2023-05-14T10:53:56.263Z,94512.00
2023-05-14T10:54:56.273Z,94510.00
2023-05-14T10:55:56.352Z,94508.00
2023-05-14T10:56:56.359Z,94506.00
2023-05-14T10:57:56.384Z,94504.00
2023-05-14T10:58:56.429Z,94498.00
2023-05-14T10:59:56.462Z,94498.00
2023-05-14T11:00:56.470Z,94495.00
2023-05-14T11:01:56.553Z,94491.00
2023-05-14T11:02:56.690Z,94495.00
2023-05-14T11:03:56.631Z,94489.00
2023-05-14T11:04:56.615Z,94487.00
2023-05-14T11:05:56.644Z,94485.00
2023-05-14T11:06:56.684Z,94487.00
2023-05-14T11:07:57.021Z,94485.00
2023-05-14T11:08:56.744Z,94485.00
2023-05-14T11:09:56.790Z,94481.00
2023-05-14T11:10:56.870Z,94481.00
2023-05-14T11:11:56.908Z,94481.00
2023-05-14T11:12:56.940Z,94483.00
2023-05-14T11:13:56.952Z,94483.00
2023-05-14T11:14:56.977Z,94481.00
2023-05-14T11:15:57.047Z,94477.00
2023-05-14T11:16:57.063Z,94477.00
2023-05-14T11:17:57.569Z,94475.00
2023-05-14T11:18:57.180Z,94475.00
2023-05-14T11:19:57.206Z,94475.00
2023-05-14T11:20:57.243Z,94475.00
2023-05-14T11:21:57.254Z,94471.00
2023-05-14T11:22:57.272Z,94469.00
2023-05-14T11:23:57.318Z,94467.00
2023-05-14T11:24:57.359Z,94463.00
2023-05-14T11:25:57.461Z,94467.00
2023-05-14T11:26:57.467Z,94463.00
2023-05-14T11:27:57.497Z,94463.00
2023-05-14T11:28:57.550Z,94461.00
2023-05-14T11:29:57.582Z,94461.00
2023-05-14T11:30:57.638Z,94463.00
2023-05-14T11:31:57.838Z,94463.00
2023-05-14T11:33:00.607Z,94463.00
2023-05-14T11:33:57.715Z,94461.00
2023-05-14T11:34:57.693Z,94459.00
2023-05-14T11:35:57.689Z,94461.00
2023-05-14T11:36:57.648Z,94463.00
2023-05-14T11:37:57.683Z,94457.00
2023-05-14T11:38:57.682Z,94459.00
2023-05-14T11:39:58.536Z,94459.00
2023-05-14T11:40:57.650Z,94457.00
2023-05-14T11:41:57.633Z,94457.00
2023-05-14T11:42:57.619Z,94453.00
2023-05-14T11:43:57.583Z,94451.00
2023-05-14T11:44:57.612Z,94451.00